Terminal Aerodrome Forecast
Issued by NWS Upton, NY

Home | Current Version | Previous Version | Text Only | Print | Product List | Glossary On
Versions: 1 2 3 4 5 6 7 8 9 10 11 12 13 14 15 16 17 18 19 20 21 22 23 24 25 26 27 28 29
000
FTUS41 KOKX 060232 AAA
TAFISP
TAF AMD
KISP 060232Z 0603/0624 22004KT P6SM BKN250
      TEMPO 0607/0611 5SM BR FEW006 BKN250
     FM061200 19005KT P6SM FEW040 BKN250
     FM061700 18010KT P6SM SCT040 BKN250=

USA.gov is the U.S. government's official web portal to all federal, state and local government web resources and services.